sensor_id;sensor_type;location;lat;lon;timestamp;pressure;altitude;pressure_sealevel;temperature;humidity
85987;BME280;76562;42.702;23.250;2024-03-08T00:01:20;95167.84;;;22.60;47.65
85987;BME280;76562;42.702;23.250;2024-03-08T00:03:49;95171.63;;;22.59;48.20
85987;BME280;76562;42.702;23.250;2024-03-08T00:06:19;95171.63;;;22.59;47.70
85987;BME280;76562;42.702;23.250;2024-03-08T00:08:47;95158.19;;;22.59;48.15
85987;BME280;76562;42.702;23.250;2024-03-08T00:11:15;95166.25;;;22.59;47.62
85987;BME280;76562;42.702;23.250;2024-03-08T00:13:44;95169.75;;;22.59;47.76
85987;BME280;76562;42.702;23.250;2024-03-08T00:16:15;95163.56;;;22.59;47.27
85987;BME280;76562;42.702;23.250;2024-03-08T00:18:46;95160.13;;;22.58;48.05
85987;BME280;76562;42.702;23.250;2024-03-08T00:21:16;95158.19;;;22.59;48.00
85987;BME280;76562;42.702;23.250;2024-03-08T00:23:45;95168.50;;;22.57;48.00
85987;BME280;76562;42.702;23.250;2024-03-08T00:26:14;95159.66;;;22.56;47.73
85987;BME280;76562;42.702;23.250;2024-03-08T00:28:43;95163.47;;;22.55;48.03
85987;BME280;76562;42.702;23.250;2024-03-08T00:31:12;95163.91;;;22.57;48.57
85987;BME280;76562;42.702;23.250;2024-03-08T00:33:42;95162.34;;;22.56;48.32
85987;BME280;76562;42.702;23.250;2024-03-08T00:36:11;95157.28;;;22.55;47.87
85987;BME280;76562;42.702;23.250;2024-03-08T00:38:40;95164.22;;;22.56;48.25
85987;BME280;76562;42.702;23.250;2024-03-08T00:41:10;95156.50;;;22.54;48.31
85987;BME280;76562;42.702;23.250;2024-03-08T00:43:40;95155.06;;;22.57;48.19
85987;BME280;76562;42.702;23.250;2024-03-08T00:46:09;95155.50;;;22.59;48.59
85987;BME280;76562;42.702;23.250;2024-03-08T00:48:38;95152.81;;;22.59;49.14
85987;BME280;76562;42.702;23.250;2024-03-08T00:51:08;95156.78;;;22.61;48.95
85987;BME280;76562;42.702;23.250;2024-03-08T00:53:37;95147.94;;;22.61;49.30
85987;BME280;76562;42.702;23.250;2024-03-08T00:56:08;95143.00;;;22.63;49.20
85987;BME280;76562;42.702;23.250;2024-03-08T00:58:38;95142.56;;;22.61;49.04
85987;BME280;76562;42.702;23.250;2024-03-08T01:01:07;95133.38;;;22.62;49.67
85987;BME280;76562;42.702;23.250;2024-03-08T01:03:37;95130.69;;;22.62;49.69
85987;BME280;76562;42.702;23.250;2024-03-08T01:06:06;95134.16;;;22.62;50.08
85987;BME280;76562;42.702;23.250;2024-03-08T01:08:36;95137.63;;;22.63;50.37
85987;BME280;76562;42.702;23.250;2024-03-08T01:11:05;95138.75;;;22.62;49.88
85987;BME280;76562;42.702;23.250;2024-03-08T01:13:34;95131.47;;;22.62;49.88
85987;BME280;76562;42.702;23.250;2024-03-08T01:16:04;95130.69;;;22.62;50.04
85987;BME280;76562;42.702;23.250;2024-03-08T01:18:33;95126.09;;;22.62;50.35
85987;BME280;76562;42.702;23.250;2024-03-08T01:21:02;95124.66;;;22.65;50.56
85987;BME280;76562;42.702;23.250;2024-03-08T01:23:31;95126.22;;;22.66;50.38
85987;BME280;76562;42.702;23.250;2024-03-08T01:26:03;95123.84;;;22.64;50.10
85987;BME280;76562;42.702;23.250;2024-03-08T01:28:34;95121.50;;;22.63;49.89
85987;BME280;76562;42.702;23.250;2024-03-08T01:31:03;95113.91;;;22.65;49.92
85987;BME280;76562;42.702;23.250;2024-03-08T01:33:33;95117.03;;;22.67;50.35
85987;BME280;76562;42.702;23.250;2024-03-08T01:36:02;95110.09;;;22.66;49.79
85987;BME280;76562;42.702;23.250;2024-03-08T01:38:31;95118.47;;;22.64;50.53
85987;BME280;76562;42.702;23.250;2024-03-08T01:41:01;95110.88;;;22.66;50.26
85987;BME280;76562;42.702;23.250;2024-03-08T01:43:31;95110.09;;;22.66;50.55
85987;BME280;76562;42.702;23.250;2024-03-08T01:46:01;95104.72;;;22.66;50.36
85987;BME280;76562;42.702;23.250;2024-03-08T01:48:30;95107.72;;;22.64;50.79
85987;BME280;76562;42.702;23.250;2024-03-08T01:50:59;95113.09;;;22.64;49.92
85987;BME280;76562;42.702;23.250;2024-03-08T01:53:29;95107.41;;;22.66;50.20
85987;BME280;76562;42.702;23.250;2024-03-08T01:55:59;95107.41;;;22.66;50.35
85987;BME280;76562;42.702;23.250;2024-03-08T01:58:31;95101.56;;;22.64;50.37
85987;BME280;76562;42.702;23.250;2024-03-08T02:01:00;95105.38;;;22.63;50.23
85987;BME280;76562;42.702;23.250;2024-03-08T02:03:30;95106.16;;;22.63;50.28
85987;BME280;76562;42.702;23.250;2024-03-08T02:06:00;95097.78;;;22.65;50.23
85987;BME280;76562;42.702;23.250;2024-03-08T02:08:28;95098.88;;;22.64;50.14
85987;BME280;76562;42.702;23.250;2024-03-08T02:10:57;95105.84;;;22.65;50.02
85987;BME280;76562;42.702;23.250;2024-03-08T02:13:27;95103.81;;;22.62;50.05
85987;BME280;76562;42.702;23.250;2024-03-08T02:15:58;95103.00;;;22.61;49.72
85987;BME280;76562;42.702;23.250;2024-03-08T02:18:28;95107.72;;;22.64;50.10
85987;BME280;76562;42.702;23.250;2024-03-08T02:21:00;95104.56;;;22.62;50.49
85987;BME280;76562;42.702;23.250;2024-03-08T02:23:30;95096.88;;;22.61;49.90
85987;BME280;76562;42.702;23.250;2024-03-08T02:26:03;95103.81;;;22.62;49.71
85987;BME280;76562;42.702;23.250;2024-03-08T02:28:33;95105.38;;;22.63;50.16
85987;BME280;76562;42.702;23.250;2024-03-08T02:31:02;95104.56;;;22.62;49.86
85987;BME280;76562;42.702;23.250;2024-03-08T02:33:35;95110.41;;;22.64;50.05
85987;BME280;76562;42.702;23.250;2024-03-08T02:36:06;95100.78;;;22.63;50.48
85987;BME280;76562;42.702;23.250;2024-03-08T02:38:35;95103.91;;;22.65;50.11
85987;BME280;76562;42.702;23.250;2024-03-08T02:41:04;95111.66;;;22.67;50.11
85987;BME280;76562;42.702;23.250;2024-03-08T02:43:33;95113.25;;;22.68;50.55
85987;BME280;76562;42.702;23.250;2024-03-08T02:46:02;95110.56;;;22.68;49.73
85987;BME280;76562;42.702;23.250;2024-03-08T02:48:32;95111.34;;;22.68;50.55
85987;BME280;76562;42.702;23.250;2024-03-08T02:51:01;95110.56;;;22.68;49.89
85987;BME280;76562;42.702;23.250;2024-03-08T02:53:33;95113.25;;;22.68;49.84
85987;BME280;76562;42.702;23.250;2024-03-08T02:56:02;95107.41;;;22.66;49.12
85987;BME280;76562;42.702;23.250;2024-03-08T02:58:31;95111.97;;;22.65;49.72
85987;BME280;76562;42.702;23.250;2024-03-08T03:01:00;95106.94;;;22.64;50.01
85987;BME280;76562;42.702;23.250;2024-03-08T03:03:29;95109.97;;;22.62;49.91
85987;BME280;76562;42.702;23.250;2024-03-08T03:05:58;95111.53;;;22.63;50.14
85987;BME280;76562;42.702;23.250;2024-03-08T03:08:28;95116.13;;;22.63;49.58
85987;BME280;76562;42.702;23.250;2024-03-08T03:10:58;95120.38;;;22.64;50.52
85987;BME280;76562;42.702;23.250;2024-03-08T03:13:27;95114.88;;;22.60;49.85
85987;BME280;76562;42.702;23.250;2024-03-08T03:15:57;95122.13;;;22.60;50.59
85987;BME280;76562;42.702;23.250;2024-03-08T03:18:26;95121.38;;;22.59;50.84
85987;BME280;76562;42.702;23.250;2024-03-08T03:20:55;95123.75;;;22.61;51.03
85987;BME280;76562;42.702;23.250;2024-03-08T03:23:24;95124.50;;;22.61;51.11
85987;BME280;76562;42.702;23.250;2024-03-08T03:25:53;95130.69;;;22.62;51.22
85987;BME280;76562;42.702;23.250;2024-03-08T03:28:25;95138.41;;;22.63;51.25
85987;BME280;76562;42.702;23.250;2024-03-08T03:30:55;95137.94;;;22.61;51.10
85987;BME280;76562;42.702;23.250;2024-03-08T03:33:26;95135.25;;;22.61;50.55
85987;BME280;76562;42.702;23.250;2024-03-08T03:35:55;95132.56;;;22.61;51.03
85987;BME280;76562;42.702;23.250;2024-03-08T03:38:24;95140.31;;;22.63;50.97
85987;BME280;76562;42.702;23.250;2024-03-08T03:40:55;95144.59;;;22.64;51.60
85987;BME280;76562;42.702;23.250;2024-03-08T03:43:32;95149.16;;;22.63;51.43
85987;BME280;76562;42.702;23.250;2024-03-08T03:46:01;95159.59;;;22.65;51.09
85987;BME280;76562;42.702;23.250;2024-03-08T03:48:30;95151.53;;;22.65;51.17
85987;BME280;76562;42.702;23.250;2024-03-08T03:50:59;95154.69;;;22.67;51.58
85987;BME280;76562;42.702;23.250;2024-03-08T03:53:29;95158.47;;;22.66;51.92
85987;BME280;76562;42.702;23.250;2024-03-08T03:55:57;95155.13;;;22.69;51.79
85987;BME280;76562;42.702;23.250;2024-03-08T03:58:27;95163.66;;;22.71;51.45
85987;BME280;76562;42.702;23.250;2024-03-08T04:00:56;95156.50;;;22.75;51.84
85987;BME280;76562;42.702;23.250;2024-03-08T04:03:25;95164.56;;;22.75;50.65
85987;BME280;76562;42.702;23.250;2024-03-08T04:05:54;95158.72;;;22.73;50.50
85987;BME280;76562;42.702;23.250;2024-03-08T04:08:23;95169.84;;;22.71;50.39
85987;BME280;76562;42.702;23.250;2024-03-08T04:10:52;95166.34;;;22.71;50.13
85987;BME280;76562;42.702;23.250;2024-03-08T04:13:21;95174.41;;;22.71;50.13
85987;BME280;76562;42.702;23.250;2024-03-08T04:15:49;95179.47;;;22.72;49.65
85987;BME280;76562;42.702;23.250;2024-03-08T04:18:20;95177.56;;;22.73;49.99
85987;BME280;76562;42.702;23.250;2024-03-08T04:20:49;95180.25;;;22.73;49.52
85987;BME280;76562;42.702;23.250;2024-03-08T04:23:17;95181.81;;;22.74;49.49
85987;BME280;76562;42.702;23.250;2024-03-08T04:25:47;95189.88;;;22.74;49.38
85987;BME280;76562;42.702;23.250;2024-03-08T04:28:15;95192.25;;;22.75;50.19
85987;BME280;76562;42.702;23.250;2024-03-08T04:30:45;95184.19;;;22.75;50.01
85987;BME280;76562;42.702;23.250;2024-03-08T04:33:14;95190.38;;;22.76;50.50
85987;BME280;76562;42.702;23.250;2024-03-08T04:35:47;95199.53;;;22.75;50.61
85987;BME280;76562;42.702;23.250;2024-03-08T04:38:15;95195.75;;;22.76;49.98
85987;BME280;76562;42.702;23.250;2024-03-08T04:40:44;95197.94;;;22.74;49.21
85987;BME280;76562;42.702;23.250;2024-03-08T04:43:12;95204.78;;;22.71;49.08
85987;BME280;76562;42.702;23.250;2024-03-08T04:45:42;95204.31;;;22.69;48.65
85987;BME280;76562;42.702;23.250;2024-03-08T04:48:11;95202.25;;;22.66;48.61
85987;BME280;76562;42.702;23.250;2024-03-08T04:50:40;95206.88;;;22.66;48.29
85987;BME280;76562;42.702;23.250;2024-03-08T04:53:10;95200.38;;;22.67;49.22
85987;BME280;76562;42.702;23.250;2024-03-08T04:55:39;95198.34;;;22.64;49.03
85987;BME280;76562;42.702;23.250;2024-03-08T04:58:07;95207.63;;;22.66;47.42
85987;BME280;76562;42.702;23.250;2024-03-08T05:00:36;95208.63;;;22.62;46.80
85987;BME280;76562;42.702;23.250;2024-03-08T05:03:05;95213.53;;;22.60;46.46
85987;BME280;76562;42.702;23.250;2024-03-08T05:05:34;95213.88;;;22.58;46.22
85987;BME280;76562;42.702;23.250;2024-03-08T05:08:04;95214.19;;;22.57;46.13
85987;BME280;76562;42.702;23.250;2024-03-08T05:10:35;95219.56;;;22.57;45.25
85987;BME280;76562;42.702;23.250;2024-03-08T05:13:03;95223.34;;;22.56;45.04
85987;BME280;76562;42.702;23.250;2024-03-08T05:15:33;95224.00;;;22.53;44.95
85987;BME280;76562;42.702;23.250;2024-03-08T05:18:02;95227.66;;;22.48;44.38
85987;BME280;76562;42.702;23.250;2024-03-08T05:20:31;95234.50;;;22.46;44.24
85987;BME280;76562;42.702;23.250;2024-03-08T05:23:00;95230.84;;;22.42;44.07
85987;BME280;76562;42.702;23.250;2024-03-08T05:25:28;95240.03;;;22.41;43.83
85987;BME280;76562;42.702;23.250;2024-03-08T05:27:59;95241.50;;;22.38;43.65
85987;BME280;76562;42.702;23.250;2024-03-08T05:30:28;95242.72;;;22.32;43.11
85987;BME280;76562;42.702;23.250;2024-03-08T05:32:57;95259.19;;;22.31;43.51
85987;BME280;76562;42.702;23.250;2024-03-08T05:35:26;95255.09;;;22.25;43.19
85987;BME280;76562;42.702;23.250;2024-03-08T05:37:55;95255.72;;;22.22;43.14
85987;BME280;76562;42.702;23.250;2024-03-08T05:40:25;95249.56;;;22.21;42.98
85987;BME280;76562;42.702;23.250;2024-03-08T05:42:54;95263.47;;;22.23;43.65
85987;BME280;76562;42.702;23.250;2024-03-08T05:45:24;95272.47;;;22.27;43.19
85987;BME280;76562;42.702;23.250;2024-03-08T05:47:53;95271.19;;;22.25;43.79
85987;BME280;76562;42.702;23.250;2024-03-08T05:50:21;95278.16;;;22.26;43.80
85987;BME280;76562;42.702;23.250;2024-03-08T05:52:50;95288.91;;;22.26;43.87
85987;BME280;76562;42.702;23.250;2024-03-08T05:55:19;95291.59;;;22.26;43.91
85987;BME280;76562;42.702;23.250;2024-03-08T05:57:49;95288.44;;;22.24;44.06
85987;BME280;76562;42.702;23.250;2024-03-08T06:00:18;95285.75;;;22.24;43.89
85987;BME280;76562;42.702;23.250;2024-03-08T06:02:49;95284.63;;;22.25;43.33
85987;BME280;76562;42.702;23.250;2024-03-08T06:05:17;95284.03;;;22.19;42.44
85987;BME280;76562;42.702;23.250;2024-03-08T06:07:46;95287.66;;;22.15;43.17
85987;BME280;76562;42.702;23.250;2024-03-08T06:10:15;95301.44;;;22.13;42.57
85987;BME280;76562;42.702;23.250;2024-03-08T06:12:45;95300.63;;;22.13;43.40
85987;BME280;76562;42.702;23.250;2024-03-08T06:15:14;95309.16;;;22.15;43.25
85987;BME280;76562;42.702;23.250;2024-03-08T06:17:43;95302.19;;;22.14;43.48
85987;BME280;76562;42.702;23.250;2024-03-08T06:20:13;95300.97;;;22.11;43.29
85987;BME280;76562;42.702;23.250;2024-03-08T06:22:42;95309.03;;;22.11;43.26
85987;BME280;76562;42.702;23.250;2024-03-08T06:25:11;95306.63;;;22.10;43.07
85987;BME280;76562;42.702;23.250;2024-03-08T06:27:40;95305.06;;;22.09;43.24
85987;BME280;76562;42.702;23.250;2024-03-08T06:30:10;95298.91;;;22.08;43.10
85987;BME280;76562;42.702;23.250;2024-03-08T06:32:40;95306.81;;;22.05;43.07
85987;BME280;76562;42.702;23.250;2024-03-08T06:35:10;95312.50;;;22.03;43.44
85987;BME280;76562;42.702;23.250;2024-03-08T06:37:40;95317.56;;;22.05;42.65
85987;BME280;76562;42.702;23.250;2024-03-08T06:40:12;95316.75;;;22.04;43.39
85987;BME280;76562;42.702;23.250;2024-03-08T06:42:42;95317.09;;;22.03;42.82
85987;BME280;76562;42.702;23.250;2024-03-08T06:45:11;95312.03;;;22.02;42.57
85987;BME280;76562;42.702;23.250;2024-03-08T06:47:40;95316.13;;;21.99;42.77
85987;BME280;76562;42.702;23.250;2024-03-08T06:50:11;95317.59;;;21.97;42.87
85987;BME280;76562;42.702;23.250;2024-03-08T06:52:41;95319.81;;;21.95;43.26
85987;BME280;76562;42.702;23.250;2024-03-08T06:55:11;95319.81;;;21.95;43.33
85987;BME280;76562;42.702;23.250;2024-03-08T06:57:40;95324.38;;;21.94;43.25
85987;BME280;76562;42.702;23.250;2024-03-08T07:00:10;95324.06;;;21.96;43.09
85987;BME280;76562;42.702;23.250;2024-03-08T07:02:45;95325.78;;;21.92;43.13
85987;BME280;76562;42.702;23.250;2024-03-08T07:05:16;95327.69;;;21.91;42.93
85987;BME280;76562;42.702;23.250;2024-03-08T07:07:46;95331.97;;;21.92;43.44
85987;BME280;76562;42.702;23.250;2024-03-08T07:10:16;95333.53;;;21.93;43.68
85987;BME280;76562;42.702;23.250;2024-03-08T07:12:46;95333.06;;;21.91;43.25
85987;BME280;76562;42.702;23.250;2024-03-08T07:15:15;95324.66;;;21.93;42.95
85987;BME280;76562;42.702;23.250;2024-03-08T07:17:47;95334.34;;;21.94;43.21
85987;BME280;76562;42.702;23.250;2024-03-08T07:20:16;95338.25;;;21.96;42.80
85987;BME280;76562;42.702;23.250;2024-03-08T07:22:48;95338.25;;;21.96;42.89
85987;BME280;76562;42.702;23.250;2024-03-08T07:25:18;95336.03;;;21.98;42.94
85987;BME280;76562;42.702;23.250;2024-03-08T07:27:49;95336.50;;;22.00;42.69
85987;BME280;76562;42.702;23.250;2024-03-08T07:30:19;95346.47;;;22.00;42.29
85987;BME280;76562;42.702;23.250;2024-03-08T07:33:06;95343.63;;;21.96;41.97
85987;BME280;76562;42.702;23.250;2024-03-08T07:35:40;95342.53;;;21.97;42.58
85987;BME280;76562;42.702;23.250;2024-03-08T07:38:11;95343.31;;;21.98;42.26
85987;BME280;76562;42.702;23.250;2024-03-08T07:40:40;95344.56;;;22.00;42.56
85987;BME280;76562;42.702;23.250;2024-03-08T07:43:12;95343.31;;;21.98;42.44
85987;BME280;76562;42.702;23.250;2024-03-08T07:45:41;95350.56;;;21.97;42.01
85987;BME280;76562;42.702;23.250;2024-03-08T07:48:10;95342.22;;;21.99;42.18
85987;BME280;76562;42.702;23.250;2024-03-08T07:50:40;95347.59;;;21.99;42.40
85987;BME280;76562;42.702;23.250;2024-03-08T07:53:11;95343.00;;;21.99;42.19
85987;BME280;76562;42.702;23.250;2024-03-08T07:55:39;95347.75;;;22.02;42.08
85987;BME280;76562;42.702;23.250;2024-03-08T07:58:09;95340.16;;;22.04;41.95
85987;BME280;76562;42.702;23.250;2024-03-08T08:00:39;95339.19;;;22.00;41.55
85987;BME280;76562;42.702;23.250;2024-03-08T08:03:13;95343.00;;;21.99;41.36
85987;BME280;76562;42.702;23.250;2024-03-08T08:05:43;95340.63;;;21.98;41.52
85987;BME280;76562;42.702;23.250;2024-03-08T08:08:13;95349.94;;;22.00;41.83
85987;BME280;76562;42.702;23.250;2024-03-08T08:10:42;95337.00;;;22.02;42.10
85987;BME280;76562;42.702;23.250;2024-03-08T08:13:11;95337.00;;;22.02;42.06
85987;BME280;76562;42.702;23.250;2024-03-08T08:15:40;95335.28;;;21.98;41.37
85987;BME280;76562;42.702;23.250;2024-03-08T08:18:09;95334.94;;;21.99;41.35
85987;BME280;76562;42.702;23.250;2024-03-08T08:20:38;95338.41;;;22.00;41.56
85987;BME280;76562;42.702;23.250;2024-03-08T08:23:07;95335.44;;;22.01;42.00
85987;BME280;76562;42.702;23.250;2024-03-08T08:25:40;95340.81;;;22.01;41.36
85987;BME280;76562;42.702;23.250;2024-03-08T08:28:08;95343.16;;;22.02;41.67
85987;BME280;76562;42.702;23.250;2024-03-08T08:30:37;95346.00;;;22.06;42.13
85987;BME280;76562;42.702;23.250;2024-03-08T08:33:05;95346.94;;;22.10;42.27
85987;BME280;76562;42.702;23.250;2024-03-08T08:35:36;95343.59;;;22.13;41.85
85987;BME280;76562;42.702;23.250;2024-03-08T08:38:05;95346.75;;;22.15;42.12
85987;BME280;76562;42.702;23.250;2024-03-08T08:40:34;95342.97;;;22.16;41.78
85987;BME280;76562;42.702;23.250;2024-03-08T08:43:05;95332.53;;;22.14;41.34
85987;BME280;76562;42.702;23.250;2024-03-08T08:45:34;95337.63;;;22.16;41.45
85987;BME280;76562;42.702;23.250;2024-03-08T08:48:03;95334.59;;;22.17;41.67
85987;BME280;76562;42.702;23.250;2024-03-08T08:50:32;95328.56;;;22.20;42.12
85987;BME280;76562;42.702;23.250;2024-03-08T08:53:02;95326.03;;;22.24;41.58
85987;BME280;76562;42.702;23.250;2024-03-08T08:55:31;95333.47;;;22.27;42.14
85987;BME280;76562;42.702;23.250;2024-03-08T08:58:05;95326.66;;;22.29;42.01
85987;BME280;76562;42.702;23.250;2024-03-08T09:00:34;95329.81;;;22.31;41.55
85987;BME280;76562;42.702;23.250;2024-03-08T09:03:03;95333.31;;;22.32;40.77
85987;BME280;76562;42.702;23.250;2024-03-08T09:05:34;95330.63;;;22.32;41.08
85987;BME280;76562;42.702;23.250;2024-03-08T09:08:06;95330.63;;;22.32;41.62
85987;BME280;76562;42.702;23.250;2024-03-08T09:10:36;95328.88;;;22.36;41.61
85987;BME280;76562;42.702;23.250;2024-03-08T09:13:07;95321.56;;;22.36;40.94
85987;BME280;76562;42.702;23.250;2024-03-08T09:15:44;95309.25;;;22.35;41.63
85987;BME280;76562;42.702;23.250;2024-03-08T09:18:14;95315.88;;;22.38;41.14
85987;BME280;76562;42.702;23.250;2024-03-08T09:20:43;95317.97;;;22.41;41.37
85987;BME280;76562;42.702;23.250;2024-03-08T09:23:12;95324.91;;;22.42;41.55
85987;BME280;76562;42.702;23.250;2024-03-08T09:25:42;95315.44;;;22.44;41.17
85987;BME280;76562;42.702;23.250;2024-03-08T09:28:15;95317.81;;;22.46;41.22
85987;BME280;76562;42.702;23.250;2024-03-08T09:30:44;95325.53;;;22.47;41.20
85987;BME280;76562;42.702;23.250;2024-03-08T09:33:25;95318.28;;;22.48;41.20
85987;BME280;76562;42.702;23.250;2024-03-08T09:35:56;95323.47;;;22.53;41.48
85987;BME280;76562;42.702;23.250;2024-03-08T09:38:27;95320.13;;;22.56;41.47
85987;BME280;76562;42.702;23.250;2024-03-08T09:40:57;95321.53;;;22.62;41.27
85987;BME280;76562;42.702;23.250;2024-03-08T09:43:27;95327.38;;;22.64;40.91
85987;BME280;76562;42.702;23.250;2024-03-08T09:45:57;95316.63;;;22.64;39.20
85987;BME280;76562;42.702;23.250;2024-03-08T09:48:26;95327.28;;;22.43;38.71
85987;BME280;76562;42.702;23.250;2024-03-08T09:50:57;95332.16;;;22.50;39.51
85987;BME280;76562;42.702;23.250;2024-03-08T09:53:25;95328.03;;;22.52;39.51
85987;BME280;76562;42.702;23.250;2024-03-08T09:55:54;95332.31;;;22.53;39.44
85987;BME280;76562;42.702;23.250;2024-03-08T09:58:24;95325.50;;;22.56;39.71
85987;BME280;76562;42.702;23.250;2024-03-08T10:01:22;95317.44;;;22.56;39.94
85987;BME280;76562;42.702;23.250;2024-03-08T10:03:53;95320.28;;;22.59;39.03
85987;BME280;76562;42.702;23.250;2024-03-08T10:06:24;95322.66;;;22.61;39.13
85987;BME280;76562;42.702;23.250;2024-03-08T10:08:53;95317.41;;;22.64;39.98
85987;BME280;76562;42.702;23.250;2024-03-08T10:11:23;95317.53;;;22.68;39.91
85987;BME280;76562;42.702;23.250;2024-03-08T10:13:54;95319.94;;;22.69;39.75
85987;BME280;76562;42.702;23.250;2024-03-08T10:16:25;95317.03;;;22.74;39.94
85987;BME280;76562;42.702;23.250;2024-03-08T10:18:56;95318.78;;;22.79;39.70
85987;BME280;76562;42.702;23.250;2024-03-08T10:21:26;95317.31;;;22.81;39.40
85987;BME280;76562;42.702;23.250;2024-03-08T10:23:56;95329.63;;;22.82;39.35
85987;BME280;76562;42.702;23.250;2024-03-08T10:26:26;95318.88;;;22.82;39.15
85987;BME280;76562;42.702;23.250;2024-03-08T10:28:55;95311.94;;;22.81;38.10
85987;BME280;76562;42.702;23.250;2024-03-08T10:31:26;95314.31;;;22.83;38.67
85987;BME280;76562;42.702;23.250;2024-03-08T10:33:55;95313.38;;;22.79;37.87
85987;BME280;76562;42.702;23.250;2024-03-08T10:36:24;95309.91;;;22.78;38.27
85987;BME280;76562;42.702;23.250;2024-03-08T10:38:53;95301.06;;;22.78;38.43
85987;BME280;76562;42.702;23.250;2024-03-08T10:41:24;95308.47;;;22.81;38.93
85987;BME280;76562;42.702;23.250;2024-03-08T10:44:10;95301.06;;;22.78;39.07
85987;BME280;76562;42.702;23.250;2024-03-08T10:46:55;95304.88;;;22.77;38.25
85987;BME280;76562;42.702;23.250;2024-03-08T10:49:31;95297.25;;;22.79;38.47
85987;BME280;76562;42.702;23.250;2024-03-08T10:52:03;95300.41;;;22.81;37.98
85987;BME280;76562;42.702;23.250;2024-03-08T10:54:33;95297.88;;;22.84;38.66
85987;BME280;76562;42.702;23.250;2024-03-08T10:57:05;95297.66;;;22.89;38.74
85987;BME280;76562;42.702;23.250;2024-03-08T10:59:35;95284.81;;;22.95;39.51
85987;BME280;76562;42.702;23.250;2024-03-08T11:02:06;95288.69;;;23.06;40.14
85987;BME280;76562;42.702;23.250;2024-03-08T11:04:36;95283.63;;;23.13;39.21
85987;BME280;76562;42.702;23.250;2024-03-08T11:07:05;95281.84;;;23.17;38.91
85987;BME280;76562;42.702;23.250;2024-03-08T11:09:36;95280.75;;;23.18;39.10
85987;BME280;76562;42.702;23.250;2024-03-08T11:12:23;95275.56;;;23.13;39.60
85987;BME280;76562;42.702;23.250;2024-03-08T11:14:56;95269.31;;;23.21;39.29
85987;BME280;76562;42.702;23.250;2024-03-08T11:17:45;95271.84;;;23.26;40.08
85987;BME280;76562;42.702;23.250;2024-03-08T11:20:14;95262.72;;;23.39;39.25
85987;BME280;76562;42.702;23.250;2024-03-08T11:22:48;95273.72;;;23.46;39.94
85987;BME280;76562;42.702;23.250;2024-03-08T11:25:33;95270.38;;;23.49;39.54
85987;BME280;76562;42.702;23.250;2024-03-08T11:28:23;95262.63;;;23.47;38.33
85987;BME280;76562;42.702;23.250;2024-03-08T11:31:24;95261.59;;;23.40;37.71
85987;BME280;76562;42.702;23.250;2024-03-08T11:33:55;95255.09;;;23.41;36.45
85987;BME280;76562;42.702;23.250;2024-03-08T11:36:25;95256.53;;;23.38;36.26
85987;BME280;76562;42.702;23.250;2024-03-08T11:38:53;95254.28;;;23.40;36.22
85987;BME280;76562;42.702;23.250;2024-03-08T11:41:24;95262.28;;;23.49;37.33
85987;BME280;76562;42.702;23.250;2024-03-08T11:44:02;95255.16;;;23.53;38.07
85987;BME280;76562;42.702;23.250;2024-03-08T11:46:34;95248.22;;;23.64;38.57
85987;BME280;76562;42.702;23.250;2024-03-08T11:49:04;95250.06;;;23.72;39.43
85987;BME280;76562;42.702;23.250;2024-03-08T11:51:33;95250.75;;;23.81;39.23
85987;BME280;76562;42.702;23.250;2024-03-08T11:54:02;95256.44;;;23.88;39.18
85987;BME280;76562;42.702;23.250;2024-03-08T11:56:31;95254.63;;;23.92;38.84
85987;BME280;76562;42.702;23.250;2024-03-08T11:59:02;95250.38;;;23.91;39.09
85987;BME280;76562;42.702;23.250;2024-03-08T12:01:30;95251.81;;;23.88;38.36
85987;BME280;76562;42.702;23.250;2024-03-08T12:03:59;95245.22;;;23.86;37.82
85987;BME280;76562;42.702;23.250;2024-03-08T12:06:38;95247.97;;;23.77;37.35
85987;BME280;76562;42.702;23.250;2024-03-08T12:09:08;95246.03;;;23.78;37.18
85987;BME280;76562;42.702;23.250;2024-03-08T12:11:38;95248.63;;;23.74;37.06
85987;BME280;76562;42.702;23.250;2024-03-08T12:14:07;95243.09;;;23.71;35.31
85987;BME280;76562;42.702;23.250;2024-03-08T12:16:37;95231.44;;;23.67;35.05
85987;BME280;76562;42.702;23.250;2024-03-08T12:19:06;95225.13;;;23.63;34.26
85987;BME280;76562;42.702;23.250;2024-03-08T12:21:36;95236.63;;;23.51;34.48
85987;BME280;76562;42.702;23.250;2024-03-08T12:24:09;95240.56;;;23.54;34.71
85987;BME280;76562;42.702;23.250;2024-03-08T12:26:40;95232.81;;;23.52;35.15
85987;BME280;76562;42.702;23.250;2024-03-08T12:29:17;95237.63;;;23.47;36.78
85987;BME280;76562;42.702;23.250;2024-03-08T12:31:47;95239.19;;;23.48;36.20
85987;BME280;76562;42.702;23.250;2024-03-08T12:34:17;95233.34;;;23.46;36.11
85987;BME280;76562;42.702;23.250;2024-03-08T12:36:48;95232.09;;;23.43;35.46
85987;BME280;76562;42.702;23.250;2024-03-08T12:39:22;95224.69;;;23.40;35.59
85987;BME280;76562;42.702;23.250;2024-03-08T12:41:55;95226.75;;;23.23;35.18
85987;BME280;76562;42.702;23.250;2024-03-08T12:44:24;95227.78;;;23.30;35.66
85987;BME280;76562;42.702;23.250;2024-03-08T12:46:53;95220.19;;;23.32;36.73
85987;BME280;76562;42.702;23.250;2024-03-08T12:49:22;95224.75;;;23.32;36.57
85987;BME280;76562;42.702;23.250;2024-03-08T12:51:52;95209.28;;;23.29;36.08
85987;BME280;76562;42.702;23.250;2024-03-08T12:54:21;95217.66;;;23.27;36.60
85987;BME280;76562;42.702;23.250;2024-03-08T12:56:51;95217.66;;;23.27;37.21
85987;BME280;76562;42.702;23.250;2024-03-08T12:59:22;95213.09;;;23.28;37.47
85987;BME280;76562;42.702;23.250;2024-03-08T13:01:52;95218.47;;;23.28;37.64
85987;BME280;76562;42.702;23.250;2024-03-08T13:04:21;95210.41;;;23.28;37.50
85987;BME280;76562;42.702;23.250;2024-03-08T13:06:51;95208.81;;;23.27;37.98